<?xml version="1.0" encoding="UTF-8" standalone="no" ?>
<gpx xmlns="http://www.topografix.com/GPX/1/1" xmlns:xsi="http://www.w3.org/2001/XMLSchema-instance" xsi:schemaLocation="http://www.topografix.com/GPX/1/1 http://www.topografix.com/GPX/1/1/gpx.xsd" version="1.1" creator="VisuGPX - https://www.visugpx.com">
  <metadata>
    <name>65 - PEDESTRE - La fruitière au lac d\'Estom et retour</name>
    <desc><![CDATA[Petite sortie]]></desc>
  </metadata>
  <wpt lat="42.85205" lon="-0.09777">
    <ele>1541.107421875</ele>
    <name><![CDATA[001]]></name>
    <desc><![CDATA[09-JUL-15 10:54:57]]></desc>
    <cmt><![CDATA[09-JUL-15 10:54:57]]></cmt>
  </wpt>
  <wpt lat="42.80774" lon="-0.09945">
    <ele>1783.8386230469</ele>
    <name><![CDATA[002]]></name>
    <desc><![CDATA[09-JUL-15 11:40:35]]></desc>
    <cmt><![CDATA[09-JUL-15 11:40:35]]></cmt>
  </wpt>
  <wpt lat="42.85352" lon="-0.09853">
    <ele>1369.1</ele>
    <name><![CDATA[La Fruitière]]></name>
    <desc><![CDATA[La Fruitière]]></desc>
    <cmt><![CDATA[La Fruitière]]></cmt>
  </wpt>
  <wpt lat="42.80625" lon="-0.09995">
    <ele>1802</ele>
    <name><![CDATA[Lac D'Estom]]></name>
    <desc><![CDATA[Lac D'Estom]]></desc>
    <cmt><![CDATA[Lac D'Estom]]></cmt>
  </wpt>
  <wpt lat="42.853" lon="-0.09797">
    <ele>1365.2</ele>
    <name><![CDATA[Parking]]></name>
    <desc><![CDATA[Parking la Fruitière 1371m]]></desc>
    <cmt><![CDATA[Parking la Fruitière 1371m]]></cmt>
  </wpt>
  <wpt lat="42.80846" lon="-0.09922">
    <ele>1796.9</ele>
    <name><![CDATA[Refuge D'Estom]]></name>
    <desc><![CDATA[Refuge D'Estom (Hôtellerie)]]></desc>
    <cmt><![CDATA[Refuge D'Estom (Hôtellerie)]]></cmt>
  </wpt>
  <trk>
    <name><![CDATA[ACTIVE LOG 016]]></name>
    <trkseg>
      <trkpt lat="42.81895" lon="-0.09818">
        <ele>1636.3012695312</ele>
        <time>2015-07-09T12:15:01Z</time>
      </trkpt>
      <trkpt lat="42.81894" lon="-0.09824">
        <ele>1633.8979492188</ele>
        <time>2015-07-09T12:15:14Z</time>
      </trkpt>
      <trkpt lat="42.81908" lon="-0.09824">
        <ele>1633.4172363281</ele>
        <time>2015-07-09T12:15:28Z</time>
      </trkpt>
      <trkpt lat="42.81923" lon="-0.09827">
        <ele>1633.8979492188</ele>
        <time>2015-07-09T12:15:44Z</time>
      </trkpt>
      <trkpt lat="42.81931" lon="-0.09824">
        <ele>1632.9365234375</ele>
        <time>2015-07-09T12:15:55Z</time>
      </trkpt>
      <trkpt lat="42.81941" lon="-0.09822">
        <ele>1632.9365234375</ele>
        <time>2015-07-09T12:16:06Z</time>
      </trkpt>
      <trkpt lat="42.81957" lon="-0.09825">
        <ele>1633.4172363281</ele>
        <time>2015-07-09T12:16:22Z</time>
      </trkpt>
      <trkpt lat="42.81967" lon="-0.09823">
        <ele>1633.4172363281</ele>
        <time>2015-07-09T12:16:32Z</time>
      </trkpt>
      <trkpt lat="42.81983" lon="-0.09817">
        <ele>1630.5334472656</ele>
        <time>2015-07-09T12:16:53Z</time>
      </trkpt>
      <trkpt lat="42.81997" lon="-0.0981">
        <ele>1627.1687011719</ele>
        <time>2015-07-09T12:17:13Z</time>
      </trkpt>
      <trkpt lat="42.82003" lon="-0.09804">
        <ele>1626.2072753906</ele>
        <time>2015-07-09T12:17:24Z</time>
      </trkpt>
      <trkpt lat="42.82009" lon="-0.09798">
        <ele>1623.8039550781</ele>
        <time>2015-07-09T12:17:35Z</time>
      </trkpt>
      <trkpt lat="42.82023" lon="-0.09795">
        <ele>1622.3620605469</ele>
        <time>2015-07-09T12:17:57Z</time>
      </trkpt>
      <trkpt lat="42.82026" lon="-0.09796">
        <ele>1621.8813476562</ele>
        <time>2015-07-09T12:18:02Z</time>
      </trkpt>
      <trkpt lat="42.82032" lon="-0.09791">
        <ele>1618.9975585938</ele>
        <time>2015-07-09T12:18:11Z</time>
      </trkpt>
      <trkpt lat="42.82039" lon="-0.09791">
        <ele>1618.5168457031</ele>
        <time>2015-07-09T12:18:21Z</time>
      </trkpt>
      <trkpt lat="42.82047" lon="-0.09792">
        <ele>1617.5554199219</ele>
        <time>2015-07-09T12:18:31Z</time>
      </trkpt>
      <trkpt lat="42.82052" lon="-0.09792">
        <ele>1616.5942382812</ele>
        <time>2015-07-09T12:18:48Z</time>
      </trkpt>
      <trkpt lat="42.82058" lon="-0.09793">
        <ele>1615.15234375</ele>
        <time>2015-07-09T12:18:56Z</time>
      </trkpt>
      <trkpt lat="42.82065" lon="-0.09793">
        <ele>1614.6716308594</ele>
        <time>2015-07-09T12:19:06Z</time>
      </trkpt>
      <trkpt lat="42.82067" lon="-0.09793">
        <ele>1613.7102050781</ele>
        <time>2015-07-09T12:19:08Z</time>
      </trkpt>
      <trkpt lat="42.82078" lon="-0.09797">
        <ele>1611.7875976562</ele>
        <time>2015-07-09T12:19:21Z</time>
      </trkpt>
      <trkpt lat="42.8208" lon="-0.09797">
        <ele>1610.826171875</ele>
        <time>2015-07-09T12:19:23Z</time>
      </trkpt>
      <trkpt lat="42.82086" lon="-0.098">
        <ele>1611.3068847656</ele>
        <time>2015-07-09T12:19:33Z</time>
      </trkpt>
      <trkpt lat="42.82092" lon="-0.098">
        <ele>1611.3068847656</ele>
        <time>2015-07-09T12:19:52Z</time>
      </trkpt>
      <trkpt lat="42.82104" lon="-0.09799">
        <ele>1609.3842773438</ele>
        <time>2015-07-09T12:20:09Z</time>
      </trkpt>
      <trkpt lat="42.82114" lon="-0.09803">
        <ele>1608.9035644531</ele>
        <time>2015-07-09T12:20:21Z</time>
      </trkpt>
      <trkpt lat="42.8212" lon="-0.09801">
        <ele>1608.4228515625</ele>
        <time>2015-07-09T12:20:29Z</time>
      </trkpt>
      <trkpt lat="42.82132" lon="-0.0979">
        <ele>1607.9423828125</ele>
        <time>2015-07-09T12:20:44Z</time>
      </trkpt>
      <trkpt lat="42.82138" lon="-0.09787">
        <ele>1607.4616699219</ele>
        <time>2015-07-09T12:20:51Z</time>
      </trkpt>
      <trkpt lat="42.82147" lon="-0.09786">
        <ele>1607.9423828125</ele>
        <time>2015-07-09T12:21:10Z</time>
      </trkpt>
      <trkpt lat="42.82155" lon="-0.09783">
        <ele>1605.5390625</ele>
        <time>2015-07-09T12:21:22Z</time>
      </trkpt>
      <trkpt lat="42.82163" lon="-0.09783">
        <ele>1603.6164550781</ele>
        <time>2015-07-09T12:21:31Z</time>
      </trkpt>
      <trkpt lat="42.82165" lon="-0.09782">
        <ele>1603.6164550781</ele>
        <time>2015-07-09T12:21:33Z</time>
      </trkpt>
      <trkpt lat="42.82177" lon="-0.09777">
        <ele>1602.1743164062</ele>
        <time>2015-07-09T12:21:46Z</time>
      </trkpt>
      <trkpt lat="42.82188" lon="-0.0977">
        <ele>1600.732421875</ele>
        <time>2015-07-09T12:22:00Z</time>
      </trkpt>
      <trkpt lat="42.82196" lon="-0.09764">
        <ele>1599.7712402344</ele>
        <time>2015-07-09T12:22:09Z</time>
      </trkpt>
      <trkpt lat="42.82199" lon="-0.09758">
        <ele>1598.3291015625</ele>
        <time>2015-07-09T12:22:15Z</time>
      </trkpt>
      <trkpt lat="42.82212" lon="-0.09749">
        <ele>1595.92578125</ele>
        <time>2015-07-09T12:22:29Z</time>
      </trkpt>
      <trkpt lat="42.82215" lon="-0.09747">
        <ele>1596.4067382812</ele>
        <time>2015-07-09T12:22:43Z</time>
      </trkpt>
      <trkpt lat="42.82224" lon="-0.09741">
        <ele>1595.4450683594</ele>
        <time>2015-07-09T12:22:52Z</time>
      </trkpt>
      <trkpt lat="42.82243" lon="-0.09727">
        <ele>1594.4836425781</ele>
        <time>2015-07-09T12:23:12Z</time>
      </trkpt>
      <trkpt lat="42.82255" lon="-0.09722">
        <ele>1592.5612792969</ele>
        <time>2015-07-09T12:23:26Z</time>
      </trkpt>
      <trkpt lat="42.82277" lon="-0.09717">
        <ele>1590.6384277344</ele>
        <time>2015-07-09T12:23:45Z</time>
      </trkpt>
      <trkpt lat="42.82294" lon="-0.09718">
        <ele>1589.6772460938</ele>
        <time>2015-07-09T12:24:03Z</time>
      </trkpt>
      <trkpt lat="42.82299" lon="-0.09716">
        <ele>1589.1965332031</ele>
        <time>2015-07-09T12:24:12Z</time>
      </trkpt>
      <trkpt lat="42.82305" lon="-0.09712">
        <ele>1587.7546386719</ele>
        <time>2015-07-09T12:24:22Z</time>
      </trkpt>
      <trkpt lat="42.82306" lon="-0.09712">
        <ele>1587.7546386719</ele>
        <time>2015-07-09T12:24:23Z</time>
      </trkpt>
      <trkpt lat="42.82312" lon="-0.09713">
        <ele>1586.7932128906</ele>
        <time>2015-07-09T12:24:30Z</time>
      </trkpt>
      <trkpt lat="42.82324" lon="-0.09712">
        <ele>1586.7932128906</ele>
        <time>2015-07-09T12:24:44Z</time>
      </trkpt>
      <trkpt lat="42.82331" lon="-0.09709">
        <ele>1587.2739257812</ele>
        <time>2015-07-09T12:24:56Z</time>
      </trkpt>
      <trkpt lat="42.82337" lon="-0.09708">
        <ele>1587.2739257812</ele>
        <time>2015-07-09T12:25:03Z</time>
      </trkpt>
      <trkpt lat="42.82346" lon="-0.09699">
        <ele>1588.2353515625</ele>
        <time>2015-07-09T12:25:22Z</time>
      </trkpt>
      <trkpt lat="42.82354" lon="-0.09693">
        <ele>1587.7546386719</ele>
        <time>2015-07-09T12:25:36Z</time>
      </trkpt>
      <trkpt lat="42.82372" lon="-0.09679">
        <ele>1585.3513183594</ele>
        <time>2015-07-09T12:25:55Z</time>
      </trkpt>
      <trkpt lat="42.82388" lon="-0.09666">
        <ele>1583.4287109375</ele>
        <time>2015-07-09T12:26:11Z</time>
      </trkpt>
      <trkpt lat="42.82388" lon="-0.09645">
        <ele>1581.5061035156</ele>
        <time>2015-07-09T12:26:27Z</time>
      </trkpt>
      <trkpt lat="42.82398" lon="-0.0963">
        <ele>1582.9479980469</ele>
        <time>2015-07-09T12:26:42Z</time>
      </trkpt>
      <trkpt lat="42.82412" lon="-0.09631">
        <ele>1580.544921875</ele>
        <time>2015-07-09T12:26:56Z</time>
      </trkpt>
      <trkpt lat="42.82427" lon="-0.09627">
        <ele>1580.0642089844</ele>
        <time>2015-07-09T12:27:09Z</time>
      </trkpt>
      <trkpt lat="42.82444" lon="-0.0963">
        <ele>1578.6220703125</ele>
        <time>2015-07-09T12:27:27Z</time>
      </trkpt>
      <trkpt lat="42.8245" lon="-0.09626">
        <ele>1578.6220703125</ele>
        <time>2015-07-09T12:27:38Z</time>
      </trkpt>
      <trkpt lat="42.82452" lon="-0.09624">
        <ele>1578.6220703125</ele>
        <time>2015-07-09T12:27:41Z</time>
      </trkpt>
      <trkpt lat="42.82461" lon="-0.0962">
        <ele>1578.6220703125</ele>
        <time>2015-07-09T12:27:51Z</time>
      </trkpt>
      <trkpt lat="42.82471" lon="-0.09618">
        <ele>1577.6606445312</ele>
        <time>2015-07-09T12:28:01Z</time>
      </trkpt>
      <trkpt lat="42.8248" lon="-0.09624">
        <ele>1576.21875</ele>
        <time>2015-07-09T12:28:11Z</time>
      </trkpt>
      <trkpt lat="42.82496" lon="-0.09624">
        <ele>1575.2573242188</ele>
        <time>2015-07-09T12:28:29Z</time>
      </trkpt>
      <trkpt lat="42.82505" lon="-0.09625">
        <ele>1574.7768554688</ele>
        <time>2015-07-09T12:28:38Z</time>
      </trkpt>
      <trkpt lat="42.82516" lon="-0.09625">
        <ele>1575.2573242188</ele>
        <time>2015-07-09T12:28:49Z</time>
      </trkpt>
      <trkpt lat="42.82533" lon="-0.09615">
        <ele>1576.21875</ele>
        <time>2015-07-09T12:29:06Z</time>
      </trkpt>
      <trkpt lat="42.82534" lon="-0.09615">
        <ele>1576.6994628906</ele>
        <time>2015-07-09T12:29:08Z</time>
      </trkpt>
      <trkpt lat="42.82539" lon="-0.09615">
        <ele>1576.21875</ele>
        <time>2015-07-09T12:29:12Z</time>
      </trkpt>
      <trkpt lat="42.82554" lon="-0.09614">
        <ele>1578.1413574219</ele>
        <time>2015-07-09T12:29:28Z</time>
      </trkpt>
      <trkpt lat="42.82567" lon="-0.09618">
        <ele>1578.6220703125</ele>
        <time>2015-07-09T12:29:42Z</time>
      </trkpt>
      <trkpt lat="42.82573" lon="-0.09624">
        <ele>1577.1801757812</ele>
        <time>2015-07-09T12:29:50Z</time>
      </trkpt>
      <trkpt lat="42.82577" lon="-0.09627">
        <ele>1576.21875</ele>
        <time>2015-07-09T12:29:55Z</time>
      </trkpt>
      <trkpt lat="42.82591" lon="-0.09627">
        <ele>1574.7768554688</ele>
        <time>2015-07-09T12:30:07Z</time>
      </trkpt>
      <trkpt lat="42.82606" lon="-0.09621">
        <ele>1575.2573242188</ele>
        <time>2015-07-09T12:30:23Z</time>
      </trkpt>
      <trkpt lat="42.82607" lon="-0.0962">
        <ele>1575.2573242188</ele>
        <time>2015-07-09T12:30:24Z</time>
      </trkpt>
      <trkpt lat="42.82616" lon="-0.09619">
        <ele>1573.8154296875</ele>
        <time>2015-07-09T12:30:36Z</time>
      </trkpt>
      <trkpt lat="42.8263" lon="-0.09619">
        <ele>1572.8542480469</ele>
        <time>2015-07-09T12:30:50Z</time>
      </trkpt>
      <trkpt lat="42.82646" lon="-0.09619">
        <ele>1571.412109375</ele>
        <time>2015-07-09T12:31:06Z</time>
      </trkpt>
      <trkpt lat="42.82653" lon="-0.09615">
        <ele>1571.412109375</ele>
        <time>2015-07-09T12:31:22Z</time>
      </trkpt>
      <trkpt lat="42.82658" lon="-0.09608">
        <ele>1570.931640625</ele>
        <time>2015-07-09T12:31:40Z</time>
      </trkpt>
      <trkpt lat="42.82661" lon="-0.09606">
        <ele>1570.931640625</ele>
        <time>2015-07-09T12:31:45Z</time>
      </trkpt>
      <trkpt lat="42.82677" lon="-0.09594">
        <ele>1570.931640625</ele>
        <time>2015-07-09T12:32:02Z</time>
      </trkpt>
      <trkpt lat="42.82684" lon="-0.09587">
        <ele>1569.9702148438</ele>
        <time>2015-07-09T12:32:12Z</time>
      </trkpt>
      <trkpt lat="42.82692" lon="-0.09576">
        <ele>1568.5283203125</ele>
        <time>2015-07-09T12:32:26Z</time>
      </trkpt>
      <trkpt lat="42.82698" lon="-0.0957">
        <ele>1565.64453125</ele>
        <time>2015-07-09T12:32:57Z</time>
      </trkpt>
      <trkpt lat="42.82703" lon="-0.09568">
        <ele>1565.64453125</ele>
        <time>2015-07-09T12:33:16Z</time>
      </trkpt>
      <trkpt lat="42.82708" lon="-0.09563">
        <ele>1564.6831054688</ele>
        <time>2015-07-09T12:33:27Z</time>
      </trkpt>
      <trkpt lat="42.82719" lon="-0.09563">
        <ele>1563.2409667969</ele>
        <time>2015-07-09T12:33:43Z</time>
      </trkpt>
      <trkpt lat="42.82723" lon="-0.0957">
        <ele>1561.7990722656</ele>
        <time>2015-07-09T12:33:54Z</time>
      </trkpt>
      <trkpt lat="42.82735" lon="-0.09575">
        <ele>1560.8376464844</ele>
        <time>2015-07-09T12:34:07Z</time>
      </trkpt>
      <trkpt lat="42.82739" lon="-0.09578">
        <ele>1560.8376464844</ele>
        <time>2015-07-09T12:34:14Z</time>
      </trkpt>
      <trkpt lat="42.8275" lon="-0.09582">
        <ele>1560.3569335938</ele>
        <time>2015-07-09T12:34:29Z</time>
      </trkpt>
      <trkpt lat="42.82758" lon="-0.09591">
        <ele>1559.3957519531</ele>
        <time>2015-07-09T12:34:42Z</time>
      </trkpt>
      <trkpt lat="42.82764" lon="-0.09597">
        <ele>1559.8762207031</ele>
        <time>2015-07-09T12:34:51Z</time>
      </trkpt>
      <trkpt lat="42.82775" lon="-0.09599">
        <ele>1559.3957519531</ele>
        <time>2015-07-09T12:35:02Z</time>
      </trkpt>
      <trkpt lat="42.82783" lon="-0.0961">
        <ele>1557.9538574219</ele>
        <time>2015-07-09T12:35:15Z</time>
      </trkpt>
      <trkpt lat="42.82796" lon="-0.09612">
        <ele>1557.4731445312</ele>
        <time>2015-07-09T12:35:26Z</time>
      </trkpt>
      <trkpt lat="42.82806" lon="-0.09615">
        <ele>1557.9538574219</ele>
        <time>2015-07-09T12:35:39Z</time>
      </trkpt>
      <trkpt lat="42.82813" lon="-0.09618">
        <ele>1556.51171875</ele>
        <time>2015-07-09T12:35:51Z</time>
      </trkpt>
      <trkpt lat="42.82823" lon="-0.09626">
        <ele>1555.5505371094</ele>
        <time>2015-07-09T12:36:02Z</time>
      </trkpt>
      <trkpt lat="42.82837" lon="-0.0963">
        <ele>1553.1472167969</ele>
        <time>2015-07-09T12:36:16Z</time>
      </trkpt>
      <trkpt lat="42.82842" lon="-0.0964">
        <ele>1552.6665039062</ele>
        <time>2015-07-09T12:36:30Z</time>
      </trkpt>
      <trkpt lat="42.82846" lon="-0.09642">
        <ele>1551.7053222656</ele>
        <time>2015-07-09T12:36:34Z</time>
      </trkpt>
      <trkpt lat="42.82859" lon="-0.09646">
        <ele>1551.224609375</ele>
        <time>2015-07-09T12:36:46Z</time>
      </trkpt>
      <trkpt lat="42.8288" lon="-0.09646">
        <ele>1550.7438964844</ele>
        <time>2015-07-09T12:37:01Z</time>
      </trkpt>
      <trkpt lat="42.82903" lon="-0.09644">
        <ele>1550.2634277344</ele>
        <time>2015-07-09T12:37:20Z</time>
      </trkpt>
      <trkpt lat="42.82925" lon="-0.0965">
        <ele>1549.7827148438</ele>
        <time>2015-07-09T12:37:39Z</time>
      </trkpt>
      <trkpt lat="42.82939" lon="-0.09646">
        <ele>1548.8212890625</ele>
        <time>2015-07-09T12:37:56Z</time>
      </trkpt>
      <trkpt lat="42.8295" lon="-0.0965">
        <ele>1546.41796875</ele>
        <time>2015-07-09T12:38:10Z</time>
      </trkpt>
      <trkpt lat="42.82951" lon="-0.09652">
        <ele>1545.9372558594</ele>
        <time>2015-07-09T12:38:12Z</time>
      </trkpt>
      <trkpt lat="42.82948" lon="-0.09673">
        <ele>1545.9372558594</ele>
        <time>2015-07-09T12:38:30Z</time>
      </trkpt>
      <trkpt lat="42.82954" lon="-0.09672">
        <ele>1546.41796875</ele>
        <time>2015-07-09T12:38:42Z</time>
      </trkpt>
      <trkpt lat="42.82946" lon="-0.09674">
        <ele>1545.9372558594</ele>
        <time>2015-07-09T12:39:24Z</time>
      </trkpt>
      <trkpt lat="42.82947" lon="-0.09675">
        <ele>1545.9372558594</ele>
        <time>2015-07-09T12:39:52Z</time>
      </trkpt>
      <trkpt lat="42.82952" lon="-0.09668">
        <ele>1546.8984375</ele>
        <time>2015-07-09T12:40:14Z</time>
      </trkpt>
      <trkpt lat="42.8295" lon="-0.09665">
        <ele>1546.41796875</ele>
        <time>2015-07-09T12:40:21Z</time>
      </trkpt>
      <trkpt lat="42.82944" lon="-0.09649">
        <ele>1546.8984375</ele>
        <time>2015-07-09T12:40:35Z</time>
      </trkpt>
      <trkpt lat="42.82938" lon="-0.09645">
        <ele>1548.8212890625</ele>
        <time>2015-07-09T12:40:44Z</time>
      </trkpt>
      <trkpt lat="42.82936" lon="-0.0964">
        <ele>1550.2634277344</ele>
        <time>2015-07-09T12:40:49Z</time>
      </trkpt>
      <trkpt lat="42.82932" lon="-0.09637">
        <ele>1551.7053222656</ele>
        <time>2015-07-09T12:40:54Z</time>
      </trkpt>
      <trkpt lat="42.82923" lon="-0.09632">
        <ele>1554.5891113281</ele>
        <time>2015-07-09T12:41:05Z</time>
      </trkpt>
      <trkpt lat="42.82921" lon="-0.09631">
        <ele>1554.5891113281</ele>
        <time>2015-07-09T12:41:12Z</time>
      </trkpt>
      <trkpt lat="42.8292" lon="-0.09627">
        <ele>1554.5891113281</ele>
        <time>2015-07-09T12:41:15Z</time>
      </trkpt>
      <trkpt lat="42.82919" lon="-0.0962">
        <ele>1556.0310058594</ele>
        <time>2015-07-09T12:41:21Z</time>
      </trkpt>
      <trkpt lat="42.82912" lon="-0.09619">
        <ele>1556.9924316406</ele>
        <time>2015-07-09T12:41:42Z</time>
      </trkpt>
      <trkpt lat="42.82928" lon="-0.09608">
        <ele>1556.9924316406</ele>
        <time>2015-07-09T12:41:54Z</time>
      </trkpt>
      <trkpt lat="42.82917" lon="-0.09617">
        <ele>1556.51171875</ele>
        <time>2015-07-09T12:42:25Z</time>
      </trkpt>
      <trkpt lat="42.82909" lon="-0.09624">
        <ele>1556.0310058594</ele>
        <time>2015-07-09T12:42:41Z</time>
      </trkpt>
      <trkpt lat="42.82912" lon="-0.0962">
        <ele>1556.51171875</ele>
        <time>2015-07-09T12:42:59Z</time>
      </trkpt>
      <trkpt lat="42.82913" lon="-0.0962">
        <ele>1556.51171875</ele>
        <time>2015-07-09T12:43:00Z</time>
      </trkpt>
      <trkpt lat="42.82917" lon="-0.09625">
        <ele>1555.0698242188</ele>
        <time>2015-07-09T12:43:05Z</time>
      </trkpt>
      <trkpt lat="42.82921" lon="-0.09629">
        <ele>1553.6279296875</ele>
        <time>2015-07-09T12:43:08Z</time>
      </trkpt>
      <trkpt lat="42.82931" lon="-0.0964">
        <ele>1551.224609375</ele>
        <time>2015-07-09T12:43:16Z</time>
      </trkpt>
      <trkpt lat="42.82933" lon="-0.09643">
        <ele>1550.2634277344</ele>
        <time>2015-07-09T12:43:19Z</time>
      </trkpt>
      <trkpt lat="42.82939" lon="-0.09648">
        <ele>1549.3020019531</ele>
        <time>2015-07-09T12:43:26Z</time>
      </trkpt>
      <trkpt lat="42.82943" lon="-0.09648">
        <ele>1548.3405761719</ele>
        <time>2015-07-09T12:43:30Z</time>
      </trkpt>
      <trkpt lat="42.82963" lon="-0.09639">
        <ele>1547.3791503906</ele>
        <time>2015-07-09T12:43:50Z</time>
      </trkpt>
      <trkpt lat="42.8297" lon="-0.0964">
        <ele>1548.3405761719</ele>
        <time>2015-07-09T12:43:57Z</time>
      </trkpt>
      <trkpt lat="42.8298" lon="-0.09649">
        <ele>1546.41796875</ele>
        <time>2015-07-09T12:44:11Z</time>
      </trkpt>
      <trkpt lat="42.82989" lon="-0.0965">
        <ele>1546.8984375</ele>
        <time>2015-07-09T12:44:28Z</time>
      </trkpt>
      <trkpt lat="42.82993" lon="-0.09651">
        <ele>1546.8984375</ele>
        <time>2015-07-09T12:44:32Z</time>
      </trkpt>
      <trkpt lat="42.83" lon="-0.09652">
        <ele>1547.3791503906</ele>
        <time>2015-07-09T12:44:40Z</time>
      </trkpt>
      <trkpt lat="42.83002" lon="-0.09653">
        <ele>1548.3405761719</ele>
        <time>2015-07-09T12:44:42Z</time>
      </trkpt>
      <trkpt lat="42.8301" lon="-0.0964">
        <ele>1549.3020019531</ele>
        <time>2015-07-09T12:44:57Z</time>
      </trkpt>
      <trkpt lat="42.83018" lon="-0.0963">
        <ele>1550.7438964844</ele>
        <time>2015-07-09T12:45:12Z</time>
      </trkpt>
      <trkpt lat="42.83024" lon="-0.09625">
        <ele>1549.3020019531</ele>
        <time>2015-07-09T12:45:21Z</time>
      </trkpt>
      <trkpt lat="42.83033" lon="-0.09619">
        <ele>1549.7827148438</ele>
        <time>2015-07-09T12:45:35Z</time>
      </trkpt>
      <trkpt lat="42.83035" lon="-0.09618">
        <ele>1550.2634277344</ele>
        <time>2015-07-09T12:45:37Z</time>
      </trkpt>
      <trkpt lat="42.83044" lon="-0.09614">
        <ele>1549.3020019531</ele>
        <time>2015-07-09T12:45:46Z</time>
      </trkpt>
      <trkpt lat="42.83048" lon="-0.09615">
        <ele>1548.8212890625</ele>
        <time>2015-07-09T12:46:09Z</time>
      </trkpt>
      <trkpt lat="42.83057" lon="-0.09612">
        <ele>1548.8212890625</ele>
        <time>2015-07-09T12:46:30Z</time>
      </trkpt>
      <trkpt lat="42.83068" lon="-0.09608">
        <ele>1548.3405761719</ele>
        <time>2015-07-09T12:46:43Z</time>
      </trkpt>
      <trkpt lat="42.83091" lon="-0.09598">
        <ele>1547.3791503906</ele>
        <time>2015-07-09T12:47:06Z</time>
      </trkpt>
      <trkpt lat="42.83108" lon="-0.09589">
        <ele>1546.41796875</ele>
        <time>2015-07-09T12:47:24Z</time>
      </trkpt>
      <trkpt lat="42.83121" lon="-0.09585">
        <ele>1545.9372558594</ele>
        <time>2015-07-09T12:47:38Z</time>
      </trkpt>
      <trkpt lat="42.83123" lon="-0.09583">
        <ele>1545.4565429688</ele>
        <time>2015-07-09T12:47:41Z</time>
      </trkpt>
      <trkpt lat="42.83137" lon="-0.09578">
        <ele>1544.4951171875</ele>
        <time>2015-07-09T12:47:56Z</time>
      </trkpt>
      <trkpt lat="42.83143" lon="-0.09573">
        <ele>1544.0146484375</ele>
        <time>2015-07-09T12:48:06Z</time>
      </trkpt>
      <trkpt lat="42.83152" lon="-0.0957">
        <ele>1541.1306152344</ele>
        <time>2015-07-09T12:48:18Z</time>
      </trkpt>
      <trkpt lat="42.8316" lon="-0.09572">
        <ele>1540.6499023438</ele>
        <time>2015-07-09T12:48:28Z</time>
      </trkpt>
      <trkpt lat="42.83165" lon="-0.09574">
        <ele>1540.1694335938</ele>
        <time>2015-07-09T12:48:39Z</time>
      </trkpt>
      <trkpt lat="42.83174" lon="-0.09572">
        <ele>1538.2468261719</ele>
        <time>2015-07-09T12:48:52Z</time>
      </trkpt>
      <trkpt lat="42.83185" lon="-0.0957">
        <ele>1536.8046875</ele>
        <time>2015-07-09T12:49:02Z</time>
      </trkpt>
      <trkpt lat="42.83192" lon="-0.09564">
        <ele>1535.3627929688</ele>
        <time>2015-07-09T12:49:13Z</time>
      </trkpt>
      <trkpt lat="42.83199" lon="-0.09563">
        <ele>1534.8823242188</ele>
        <time>2015-07-09T12:49:23Z</time>
      </trkpt>
      <trkpt lat="42.83206" lon="-0.09566">
        <ele>1533.9208984375</ele>
        <time>2015-07-09T12:49:33Z</time>
      </trkpt>
      <trkpt lat="42.83215" lon="-0.09572">
        <ele>1530.5561523438</ele>
        <time>2015-07-09T12:49:53Z</time>
      </trkpt>
      <trkpt lat="42.83226" lon="-0.09578">
        <ele>1529.5947265625</ele>
        <time>2015-07-09T12:50:11Z</time>
      </trkpt>
      <trkpt lat="42.83235" lon="-0.09584">
        <ele>1528.1528320312</ele>
        <time>2015-07-09T12:50:24Z</time>
      </trkpt>
      <trkpt lat="42.8324" lon="-0.09588">
        <ele>1526.7109375</ele>
        <time>2015-07-09T12:50:31Z</time>
      </trkpt>
      <trkpt lat="42.83251" lon="-0.09592">
        <ele>1526.7109375</ele>
        <time>2015-07-09T12:50:41Z</time>
      </trkpt>
      <trkpt lat="42.83274" lon="-0.09595">
        <ele>1525.2687988281</ele>
        <time>2015-07-09T12:51:03Z</time>
      </trkpt>
      <trkpt lat="42.8328" lon="-0.09595">
        <ele>1524.7883300781</ele>
        <time>2015-07-09T12:51:08Z</time>
      </trkpt>
      <trkpt lat="42.83285" lon="-0.09592">
        <ele>1524.3076171875</ele>
        <time>2015-07-09T12:51:12Z</time>
      </trkpt>
      <trkpt lat="42.83297" lon="-0.09591">
        <ele>1524.7883300781</ele>
        <time>2015-07-09T12:51:27Z</time>
      </trkpt>
      <trkpt lat="42.83318" lon="-0.09588">
        <ele>1523.8269042969</ele>
        <time>2015-07-09T12:51:45Z</time>
      </trkpt>
      <trkpt lat="42.83339" lon="-0.09596">
        <ele>1523.8269042969</ele>
        <time>2015-07-09T12:51:53Z</time>
      </trkpt>
      <trkpt lat="42.83344" lon="-0.09596">
        <ele>1523.3464355469</ele>
        <time>2015-07-09T12:51:57Z</time>
      </trkpt>
      <trkpt lat="42.83358" lon="-0.09595">
        <ele>1521.904296875</ele>
        <time>2015-07-09T12:52:10Z</time>
      </trkpt>
      <trkpt lat="42.83368" lon="-0.09592">
        <ele>1522.8657226562</ele>
        <time>2015-07-09T12:52:19Z</time>
      </trkpt>
      <trkpt lat="42.83372" lon="-0.09592">
        <ele>1521.904296875</ele>
        <time>2015-07-09T12:52:23Z</time>
      </trkpt>
      <trkpt lat="42.83392" lon="-0.09593">
        <ele>1521.4235839844</ele>
        <time>2015-07-09T12:52:40Z</time>
      </trkpt>
      <trkpt lat="42.83398" lon="-0.09599">
        <ele>1520.4624023438</ele>
        <time>2015-07-09T12:52:50Z</time>
      </trkpt>
      <trkpt lat="42.83404" lon="-0.096">
        <ele>1519.9816894531</ele>
        <time>2015-07-09T12:52:57Z</time>
      </trkpt>
      <trkpt lat="42.83411" lon="-0.09609">
        <ele>1519.5012207031</ele>
        <time>2015-07-09T12:53:06Z</time>
      </trkpt>
      <trkpt lat="42.83415" lon="-0.09609">
        <ele>1519.0205078125</ele>
        <time>2015-07-09T12:53:10Z</time>
      </trkpt>
      <trkpt lat="42.83439" lon="-0.09608">
        <ele>1518.5397949219</ele>
        <time>2015-07-09T12:53:31Z</time>
      </trkpt>
      <trkpt lat="42.83455" lon="-0.09613">
        <ele>1517.5783691406</ele>
        <time>2015-07-09T12:53:47Z</time>
      </trkpt>
      <trkpt lat="42.83474" lon="-0.0962">
        <ele>1517.0979003906</ele>
        <time>2015-07-09T12:54:07Z</time>
      </trkpt>
      <trkpt lat="42.83484" lon="-0.09628">
        <ele>1515.6557617188</ele>
        <time>2015-07-09T12:54:22Z</time>
      </trkpt>
      <trkpt lat="42.83494" lon="-0.09632">
        <ele>1514.6943359375</ele>
        <time>2015-07-09T12:54:33Z</time>
      </trkpt>
      <trkpt lat="42.83503" lon="-0.0964">
        <ele>1513.7329101562</ele>
        <time>2015-07-09T12:54:42Z</time>
      </trkpt>
      <trkpt lat="42.83527" lon="-0.09647">
        <ele>1512.7717285156</ele>
        <time>2015-07-09T12:55:05Z</time>
      </trkpt>
      <trkpt lat="42.83552" lon="-0.09657">
        <ele>1512.7717285156</ele>
        <time>2015-07-09T12:55:27Z</time>
      </trkpt>
      <trkpt lat="42.83565" lon="-0.09663">
        <ele>1509.8876953125</ele>
        <time>2015-07-09T12:55:39Z</time>
      </trkpt>
      <trkpt lat="42.83586" lon="-0.0967">
        <ele>1507.4846191406</ele>
        <time>2015-07-09T12:55:58Z</time>
      </trkpt>
      <trkpt lat="42.83594" lon="-0.09671">
        <ele>1507.00390625</ele>
        <time>2015-07-09T12:56:06Z</time>
      </trkpt>
      <trkpt lat="42.83603" lon="-0.09667">
        <ele>1507.4846191406</ele>
        <time>2015-07-09T12:56:15Z</time>
      </trkpt>
      <trkpt lat="42.83612" lon="-0.09666">
        <ele>1507.00390625</ele>
        <time>2015-07-09T12:56:22Z</time>
      </trkpt>
      <trkpt lat="42.83633" lon="-0.09662">
        <ele>1506.5231933594</ele>
        <time>2015-07-09T12:56:40Z</time>
      </trkpt>
      <trkpt lat="42.83656" lon="-0.09669">
        <ele>1505.5620117188</ele>
        <time>2015-07-09T12:57:00Z</time>
      </trkpt>
      <trkpt lat="42.83675" lon="-0.09672">
        <ele>1505.0812988281</ele>
        <time>2015-07-09T12:57:16Z</time>
      </trkpt>
      <trkpt lat="42.83684" lon="-0.09668">
        <ele>1504.1201171875</ele>
        <time>2015-07-09T12:57:25Z</time>
      </trkpt>
      <trkpt lat="42.83699" lon="-0.09659">
        <ele>1503.1586914062</ele>
        <time>2015-07-09T12:57:40Z</time>
      </trkpt>
      <trkpt lat="42.83718" lon="-0.09649">
        <ele>1503.1586914062</ele>
        <time>2015-07-09T12:57:58Z</time>
      </trkpt>
      <trkpt lat="42.8374" lon="-0.09634">
        <ele>1502.6779785156</ele>
        <time>2015-07-09T12:58:18Z</time>
      </trkpt>
      <trkpt lat="42.83769" lon="-0.09624">
        <ele>1500.2749023438</ele>
        <time>2015-07-09T12:58:42Z</time>
      </trkpt>
      <trkpt lat="42.83792" lon="-0.09616">
        <ele>1499.3132324219</ele>
        <time>2015-07-09T12:59:01Z</time>
      </trkpt>
      <trkpt lat="42.83815" lon="-0.09604">
        <ele>1498.3518066406</ele>
        <time>2015-07-09T12:59:21Z</time>
      </trkpt>
      <trkpt lat="42.83835" lon="-0.09598">
        <ele>1498.8325195312</ele>
        <time>2015-07-09T12:59:38Z</time>
      </trkpt>
      <trkpt lat="42.83859" lon="-0.09601">
        <ele>1497.8713378906</ele>
        <time>2015-07-09T13:00:00Z</time>
      </trkpt>
      <trkpt lat="42.83874" lon="-0.09611">
        <ele>1496.4294433594</ele>
        <time>2015-07-09T13:00:16Z</time>
      </trkpt>
      <trkpt lat="42.83889" lon="-0.09615">
        <ele>1495.9487304688</ele>
        <time>2015-07-09T13:00:31Z</time>
      </trkpt>
      <trkpt lat="42.83907" lon="-0.09615">
        <ele>1495.4680175781</ele>
        <time>2015-07-09T13:00:49Z</time>
      </trkpt>
      <trkpt lat="42.83928" lon="-0.09622">
        <ele>1494.0261230469</ele>
        <time>2015-07-09T13:01:09Z</time>
      </trkpt>
      <trkpt lat="42.83948" lon="-0.09625">
        <ele>1493.5454101562</ele>
        <time>2015-07-09T13:01:27Z</time>
      </trkpt>
      <trkpt lat="42.83954" lon="-0.09625">
        <ele>1492.5842285156</ele>
        <time>2015-07-09T13:01:34Z</time>
      </trkpt>
      <trkpt lat="42.83965" lon="-0.09627">
        <ele>1492.5842285156</ele>
        <time>2015-07-09T13:01:45Z</time>
      </trkpt>
      <trkpt lat="42.83972" lon="-0.09631">
        <ele>1492.103515625</ele>
        <time>2015-07-09T13:01:52Z</time>
      </trkpt>
      <trkpt lat="42.83981" lon="-0.09635">
        <ele>1492.103515625</ele>
        <time>2015-07-09T13:02:02Z</time>
      </trkpt>
      <trkpt lat="42.83993" lon="-0.09643">
        <ele>1491.6228027344</ele>
        <time>2015-07-09T13:02:17Z</time>
      </trkpt>
      <trkpt lat="42.84005" lon="-0.09653">
        <ele>1490.1809082031</ele>
        <time>2015-07-09T13:02:33Z</time>
      </trkpt>
      <trkpt lat="42.84013" lon="-0.0966">
        <ele>1490.1809082031</ele>
        <time>2015-07-09T13:02:42Z</time>
      </trkpt>
      <trkpt lat="42.84036" lon="-0.09658">
        <ele>1489.2194824219</ele>
        <time>2015-07-09T13:03:04Z</time>
      </trkpt>
      <trkpt lat="42.84058" lon="-0.09662">
        <ele>1488.2583007812</ele>
        <time>2015-07-09T13:03:24Z</time>
      </trkpt>
      <trkpt lat="42.84073" lon="-0.09665">
        <ele>1489.2194824219</ele>
        <time>2015-07-09T13:03:42Z</time>
      </trkpt>
      <trkpt lat="42.84075" lon="-0.09667">
        <ele>1489.7001953125</ele>
        <time>2015-07-09T13:03:44Z</time>
      </trkpt>
      <trkpt lat="42.84087" lon="-0.09677">
        <ele>1487.7775878906</ele>
        <time>2015-07-09T13:04:01Z</time>
      </trkpt>
      <trkpt lat="42.84092" lon="-0.09682">
        <ele>1487.296875</ele>
        <time>2015-07-09T13:04:08Z</time>
      </trkpt>
      <trkpt lat="42.841" lon="-0.0969">
        <ele>1485.8549804688</ele>
        <time>2015-07-09T13:04:21Z</time>
      </trkpt>
      <trkpt lat="42.84105" lon="-0.09698">
        <ele>1484.4130859375</ele>
        <time>2015-07-09T13:04:30Z</time>
      </trkpt>
      <trkpt lat="42.84114" lon="-0.0971">
        <ele>1482.490234375</ele>
        <time>2015-07-09T13:04:44Z</time>
      </trkpt>
      <trkpt lat="42.84123" lon="-0.09721">
        <ele>1480.0869140625</ele>
        <time>2015-07-09T13:04:57Z</time>
      </trkpt>
      <trkpt lat="42.84124" lon="-0.09721">
        <ele>1480.0869140625</ele>
        <time>2015-07-09T13:04:58Z</time>
      </trkpt>
      <trkpt lat="42.84144" lon="-0.09734">
        <ele>1477.203125</ele>
        <time>2015-07-09T13:05:17Z</time>
      </trkpt>
      <trkpt lat="42.84163" lon="-0.09731">
        <ele>1476.2416992188</ele>
        <time>2015-07-09T13:05:32Z</time>
      </trkpt>
      <trkpt lat="42.84185" lon="-0.09721">
        <ele>1473.3579101562</ele>
        <time>2015-07-09T13:05:52Z</time>
      </trkpt>
      <trkpt lat="42.84195" lon="-0.09701">
        <ele>1471.4350585938</ele>
        <time>2015-07-09T13:06:12Z</time>
      </trkpt>
      <trkpt lat="42.84197" lon="-0.09696">
        <ele>1471.4350585938</ele>
        <time>2015-07-09T13:06:16Z</time>
      </trkpt>
      <trkpt lat="42.842" lon="-0.09678">
        <ele>1469.0319824219</ele>
        <time>2015-07-09T13:06:33Z</time>
      </trkpt>
      <trkpt lat="42.84216" lon="-0.09655">
        <ele>1468.0705566406</ele>
        <time>2015-07-09T13:06:53Z</time>
      </trkpt>
      <trkpt lat="42.84236" lon="-0.09657">
        <ele>1468.0705566406</ele>
        <time>2015-07-09T13:07:11Z</time>
      </trkpt>
      <trkpt lat="42.84259" lon="-0.09656">
        <ele>1467.1091308594</ele>
        <time>2015-07-09T13:07:32Z</time>
      </trkpt>
      <trkpt lat="42.84274" lon="-0.09659">
        <ele>1465.6672363281</ele>
        <time>2015-07-09T13:07:47Z</time>
      </trkpt>
      <trkpt lat="42.84287" lon="-0.09652">
        <ele>1468.0705566406</ele>
        <time>2015-07-09T13:08:01Z</time>
      </trkpt>
      <trkpt lat="42.84288" lon="-0.09652">
        <ele>1468.0705566406</ele>
        <time>2015-07-09T13:08:02Z</time>
      </trkpt>
      <trkpt lat="42.84295" lon="-0.09654">
        <ele>1467.5895996094</ele>
        <time>2015-07-09T13:08:19Z</time>
      </trkpt>
      <trkpt lat="42.84297" lon="-0.09655">
        <ele>1468.0705566406</ele>
        <time>2015-07-09T13:08:23Z</time>
      </trkpt>
      <trkpt lat="42.84306" lon="-0.09663">
        <ele>1467.1091308594</ele>
        <time>2015-07-09T13:08:38Z</time>
      </trkpt>
      <trkpt lat="42.8431" lon="-0.09664">
        <ele>1466.6284179688</ele>
        <time>2015-07-09T13:08:43Z</time>
      </trkpt>
      <trkpt lat="42.84328" lon="-0.0966">
        <ele>1465.1865234375</ele>
        <time>2015-07-09T13:09:02Z</time>
      </trkpt>
      <trkpt lat="42.8435" lon="-0.09664">
        <ele>1463.7443847656</ele>
        <time>2015-07-09T13:09:21Z</time>
      </trkpt>
      <trkpt lat="42.84373" lon="-0.09664">
        <ele>1462.783203125</ele>
        <time>2015-07-09T13:09:41Z</time>
      </trkpt>
      <trkpt lat="42.8439" lon="-0.09666">
        <ele>1461.3413085938</ele>
        <time>2015-07-09T13:10:01Z</time>
      </trkpt>
      <trkpt lat="42.84407" lon="-0.09664">
        <ele>1459.8991699219</ele>
        <time>2015-07-09T13:10:20Z</time>
      </trkpt>
      <trkpt lat="42.84419" lon="-0.09659">
        <ele>1458.4572753906</ele>
        <time>2015-07-09T13:10:35Z</time>
      </trkpt>
      <trkpt lat="42.84433" lon="-0.09652">
        <ele>1455.0927734375</ele>
        <time>2015-07-09T13:10:48Z</time>
      </trkpt>
      <trkpt lat="42.84444" lon="-0.09649">
        <ele>1452.689453125</ele>
        <time>2015-07-09T13:11:03Z</time>
      </trkpt>
      <trkpt lat="42.84447" lon="-0.09647">
        <ele>1452.689453125</ele>
        <time>2015-07-09T13:11:07Z</time>
      </trkpt>
      <trkpt lat="42.84457" lon="-0.09643">
        <ele>1449.3247070312</ele>
        <time>2015-07-09T13:11:18Z</time>
      </trkpt>
      <trkpt lat="42.84471" lon="-0.09638">
        <ele>1446.4409179688</ele>
        <time>2015-07-09T13:11:36Z</time>
      </trkpt>
      <trkpt lat="42.84485" lon="-0.09633">
        <ele>1444.0375976562</ele>
        <time>2015-07-09T13:11:53Z</time>
      </trkpt>
      <trkpt lat="42.84495" lon="-0.0963">
        <ele>1440.6728515625</ele>
        <time>2015-07-09T13:12:05Z</time>
      </trkpt>
      <trkpt lat="42.84508" lon="-0.09627">
        <ele>1437.3083496094</ele>
        <time>2015-07-09T13:12:17Z</time>
      </trkpt>
      <trkpt lat="42.8453" lon="-0.09619">
        <ele>1436.8276367188</ele>
        <time>2015-07-09T13:12:37Z</time>
      </trkpt>
      <trkpt lat="42.84541" lon="-0.09618">
        <ele>1435.8662109375</ele>
        <time>2015-07-09T13:12:46Z</time>
      </trkpt>
      <trkpt lat="42.84545" lon="-0.09619">
        <ele>1434.4243164062</ele>
        <time>2015-07-09T13:12:51Z</time>
      </trkpt>
      <trkpt lat="42.84553" lon="-0.09618">
        <ele>1433.9436035156</ele>
        <time>2015-07-09T13:12:57Z</time>
      </trkpt>
      <trkpt lat="42.84575" lon="-0.09623">
        <ele>1433.462890625</ele>
        <time>2015-07-09T13:13:16Z</time>
      </trkpt>
      <trkpt lat="42.84584" lon="-0.09628">
        <ele>1432.5017089844</ele>
        <time>2015-07-09T13:13:32Z</time>
      </trkpt>
      <trkpt lat="42.84602" lon="-0.09624">
        <ele>1429.6176757812</ele>
        <time>2015-07-09T13:13:50Z</time>
      </trkpt>
      <trkpt lat="42.84605" lon="-0.09621">
        <ele>1428.6564941406</ele>
        <time>2015-07-09T13:13:53Z</time>
      </trkpt>
      <trkpt lat="42.84628" lon="-0.09618">
        <ele>1427.6950683594</ele>
        <time>2015-07-09T13:14:13Z</time>
      </trkpt>
      <trkpt lat="42.84657" lon="-0.09617">
        <ele>1427.6950683594</ele>
        <time>2015-07-09T13:14:36Z</time>
      </trkpt>
      <trkpt lat="42.84664" lon="-0.09617">
        <ele>1427.2145996094</ele>
        <time>2015-07-09T13:14:51Z</time>
      </trkpt>
      <trkpt lat="42.84674" lon="-0.0962">
        <ele>1426.7338867188</ele>
        <time>2015-07-09T13:15:06Z</time>
      </trkpt>
      <trkpt lat="42.84683" lon="-0.09621">
        <ele>1427.2145996094</ele>
        <time>2015-07-09T13:15:20Z</time>
      </trkpt>
      <trkpt lat="42.8469" lon="-0.09621">
        <ele>1425.7724609375</ele>
        <time>2015-07-09T13:15:33Z</time>
      </trkpt>
      <trkpt lat="42.84699" lon="-0.0962">
        <ele>1424.8112792969</ele>
        <time>2015-07-09T13:15:49Z</time>
      </trkpt>
      <trkpt lat="42.84706" lon="-0.0962">
        <ele>1422.888671875</ele>
        <time>2015-07-09T13:15:56Z</time>
      </trkpt>
      <trkpt lat="42.84707" lon="-0.0962">
        <ele>1422.888671875</ele>
        <time>2015-07-09T13:15:57Z</time>
      </trkpt>
      <trkpt lat="42.84724" lon="-0.09627">
        <ele>1421.4465332031</ele>
        <time>2015-07-09T13:16:14Z</time>
      </trkpt>
      <trkpt lat="42.84748" lon="-0.09634">
        <ele>1420.4853515625</ele>
        <time>2015-07-09T13:16:35Z</time>
      </trkpt>
      <trkpt lat="42.84753" lon="-0.09636">
        <ele>1420.0046386719</ele>
        <time>2015-07-09T13:16:41Z</time>
      </trkpt>
      <trkpt lat="42.84759" lon="-0.09639">
        <ele>1420.0046386719</ele>
        <time>2015-07-09T13:16:47Z</time>
      </trkpt>
      <trkpt lat="42.84775" lon="-0.09649">
        <ele>1419.5239257812</ele>
        <time>2015-07-09T13:17:03Z</time>
      </trkpt>
      <trkpt lat="42.84795" lon="-0.09658">
        <ele>1417.6010742188</ele>
        <time>2015-07-09T13:17:23Z</time>
      </trkpt>
      <trkpt lat="42.84797" lon="-0.09658">
        <ele>1417.6010742188</ele>
        <time>2015-07-09T13:17:30Z</time>
      </trkpt>
      <trkpt lat="42.84816" lon="-0.09665">
        <ele>1414.7172851562</ele>
        <time>2015-07-09T13:17:48Z</time>
      </trkpt>
      <trkpt lat="42.84822" lon="-0.09666">
        <ele>1413.275390625</ele>
        <time>2015-07-09T13:17:53Z</time>
      </trkpt>
      <trkpt lat="42.84843" lon="-0.09675">
        <ele>1412.7946777344</ele>
        <time>2015-07-09T13:18:12Z</time>
      </trkpt>
      <trkpt lat="42.84869" lon="-0.09688">
        <ele>1411.3527832031</ele>
        <time>2015-07-09T13:18:35Z</time>
      </trkpt>
      <trkpt lat="42.84892" lon="-0.09701">
        <ele>1409.9106445312</ele>
        <time>2015-07-09T13:18:56Z</time>
      </trkpt>
      <trkpt lat="42.84918" lon="-0.09722">
        <ele>1409.9106445312</ele>
        <time>2015-07-09T13:19:20Z</time>
      </trkpt>
      <trkpt lat="42.84932" lon="-0.09735">
        <ele>1409.4301757812</ele>
        <time>2015-07-09T13:19:36Z</time>
      </trkpt>
      <trkpt lat="42.84956" lon="-0.09748">
        <ele>1407.98828125</ele>
        <time>2015-07-09T13:19:57Z</time>
      </trkpt>
      <trkpt lat="42.84977" lon="-0.09756">
        <ele>1407.5075683594</ele>
        <time>2015-07-09T13:20:16Z</time>
      </trkpt>
      <trkpt lat="42.84995" lon="-0.0976">
        <ele>1406.5461425781</ele>
        <time>2015-07-09T13:20:33Z</time>
      </trkpt>
      <trkpt lat="42.85019" lon="-0.09766">
        <ele>1405.5849609375</ele>
        <time>2015-07-09T13:20:54Z</time>
      </trkpt>
      <trkpt lat="42.85025" lon="-0.09769">
        <ele>1405.1042480469</ele>
        <time>2015-07-09T13:21:04Z</time>
      </trkpt>
      <trkpt lat="42.85045" lon="-0.09773">
        <ele>1403.1813964844</ele>
        <time>2015-07-09T13:21:23Z</time>
      </trkpt>
      <trkpt lat="42.85067" lon="-0.09784">
        <ele>1401.2587890625</ele>
        <time>2015-07-09T13:21:44Z</time>
      </trkpt>
      <trkpt lat="42.85072" lon="-0.09782">
        <ele>1400.7780761719</ele>
        <time>2015-07-09T13:21:49Z</time>
      </trkpt>
      <trkpt lat="42.85088" lon="-0.09784">
        <ele>1399.8168945312</ele>
        <time>2015-07-09T13:22:05Z</time>
      </trkpt>
      <trkpt lat="42.85103" lon="-0.09782">
        <ele>1396.9328613281</ele>
        <time>2015-07-09T13:22:22Z</time>
      </trkpt>
      <trkpt lat="42.85118" lon="-0.09779">
        <ele>1395.0102539062</ele>
        <time>2015-07-09T13:22:37Z</time>
      </trkpt>
      <trkpt lat="42.85144" lon="-0.09777">
        <ele>1395.0102539062</ele>
        <time>2015-07-09T13:22:57Z</time>
      </trkpt>
      <trkpt lat="42.85169" lon="-0.09779">
        <ele>1395.0102539062</ele>
        <time>2015-07-09T13:23:15Z</time>
      </trkpt>
      <trkpt lat="42.85193" lon="-0.09778">
        <ele>1394.5295410156</ele>
        <time>2015-07-09T13:23:34Z</time>
      </trkpt>
      <trkpt lat="42.85212" lon="-0.09787">
        <ele>1393.568359375</ele>
        <time>2015-07-09T13:23:50Z</time>
      </trkpt>
      <trkpt lat="42.85236" lon="-0.09796">
        <ele>1392.1264648438</ele>
        <time>2015-07-09T13:24:09Z</time>
      </trkpt>
      <trkpt lat="42.85252" lon="-0.0981">
        <ele>1392.1264648438</ele>
        <time>2015-07-09T13:24:25Z</time>
      </trkpt>
      <trkpt lat="42.85255" lon="-0.09806">
        <ele>1391.6457519531</ele>
        <time>2015-07-09T13:24:31Z</time>
      </trkpt>
      <trkpt lat="42.85267" lon="-0.0981">
        <ele>1391.1650390625</ele>
        <time>2015-07-09T13:24:42Z</time>
      </trkpt>
      <trkpt lat="42.85293" lon="-0.09817">
        <ele>1389.7231445312</ele>
        <time>2015-07-09T13:25:06Z</time>
      </trkpt>
      <trkpt lat="42.85319" lon="-0.09818">
        <ele>1389.2424316406</ele>
        <time>2015-07-09T13:25:29Z</time>
      </trkpt>
      <trkpt lat="42.85353" lon="-0.09815">
        <ele>1387.8002929688</ele>
        <time>2015-07-09T13:25:56Z</time>
      </trkpt>
      <trkpt lat="42.85362" lon="-0.09817">
        <ele>1387.3195800781</ele>
        <time>2015-07-09T13:26:04Z</time>
      </trkpt>
      <trkpt lat="42.85365" lon="-0.09823">
        <ele>1384.9165039062</ele>
        <time>2015-07-09T13:26:17Z</time>
      </trkpt>
      <trkpt lat="42.85365" lon="-0.09824">
        <ele>1385.8776855469</ele>
        <time>2015-07-09T13:26:28Z</time>
      </trkpt>
    </trkseg>
  </trk>
</gpx>